Time;durP1;ratioP1;P1;durP2;ratioP2;P2;SDS_P1;SDS_P2;PMS_P1;PMS_P2;Temp;Humidity;BMP_temperature;BMP_pressure;BME280_temperature;BME280_humidity;BME280_pressure;Samples;Min_cycle;Max_cycle;Signal;HPM_P1;HPM_P2
2022/10/11 00:01:57;;;;;;;8.38;4.82;;;;;;;14.65;85.71;100898.84;5107411;28;20027;-27
2022/10/11 00:04:22;;;;;;;7.95;4.63;;;;;;;14.88;84.03;100883.91;5107432;28;20027;-28
2022/10/11 00:06:48;;;;;;;9.25;4.95;;;;;;;14.91;83.84;100873.50;5107510;28;20122;-31
2022/10/11 00:09:14;;;;;;;9.35;5.85;;;;;;;14.79;84.92;100884.22;5107588;28;20016;-28
2022/10/11 00:11:41;;;;;;;9.40;4.95;;;;;;;14.69;85.07;100875.88;5107134;28;20035;-27
2022/10/11 00:14:07;;;;;;;9.27;5.13;;;;;;;14.78;84.79;100895.16;5107315;28;20034;-28
2022/10/11 00:16:32;;;;;;;9.70;5.07;;;;;;;14.76;84.83;100892.69;5107497;28;20028;-28
2022/10/11 00:18:58;;;;;;;7.38;4.53;;;;;;;14.77;84.93;100899.72;5107222;28;20031;-28
2022/10/11 00:21:23;;;;;;;11.55;5.10;;;;;;;14.70;84.72;100879.38;5107411;28;20038;-32
2022/10/11 00:23:49;;;;;;;10.43;5.13;;;;;;;14.66;84.90;100879.00;5088523;28;20035;-30
2022/10/11 00:26:15;;;;;;;9.15;5.05;;;;;;;14.65;85.49;100890.78;5088947;28;20084;-27
2022/10/11 00:28:41;;;;;;;10.93;5.00;;;;;;;14.55;85.37;100877.06;5106876;28;20020;-28
2022/10/11 00:31:14;;;;;;;8.75;4.80;;;;;;;14.75;84.72;100883.03;5107425;28;20035;-28
2022/10/11 00:33:40;;;;;;;8.23;5.07;;;;;;;14.64;84.79;100879.22;5107108;28;20030;-29
2022/10/11 00:36:06;;;;;;;11.43;5.47;;;;;;;14.73;84.58;100893.16;5107607;28;20031;-28
2022/10/11 00:38:32;;;;;;;13.20;5.05;;;;;;;14.80;84.13;100888.53;5106906;28;20035;-30
2022/10/11 00:40:58;;;;;;;7.85;4.75;;;;;;;14.72;84.80;100888.81;5107931;28;20454;-28
2022/10/11 00:43:26;;;;;;;8.40;4.78;;;;;;;14.60;84.96;100875.34;5111288;28;20032;-27
2022/10/11 00:45:54;;;;;;;9.70;5.05;;;;;;;14.57;85.76;100886.53;5111141;28;20038;-29
2022/10/11 00:48:26;;;;;;;;;;;;;;;14.70;85.17;100890.91;5111806;28;20046;-28
2022/10/11 00:50:54;;;;;;;7.55;4.72;;;;;;;14.51;85.59;100882.03;5111011;28;19916;-32
2022/10/11 00:53:21;;;;;;;7.30;5.00;;;;;;;14.36;85.78;100868.97;5110958;28;20047;-31
2022/10/11 00:55:58;;;;;;;9.57;4.85;;;;;;;14.61;84.84;100865.44;5110396;28;20127;-28
2022/10/11 00:58:24;;;;;;;7.57;5.00;;;;;;;14.65;85.13;100882.75;5111017;28;20110;-28
2022/10/11 01:00:50;;;;;;;10.50;5.00;;;;;;;14.73;84.95;100881.59;5111141;28;20115;-28
2022/10/11 01:03:18;;;;;;;11.15;5.13;;;;;;;14.78;84.27;100863.75;5110436;28;20043;-27
2022/10/11 01:05:45;;;;;;;10.13;4.78;;;;;;;14.67;84.56;100875.28;5110089;28;20051;-28
2022/10/11 01:08:11;;;;;;;10.18;4.30;;;;;;;14.55;84.96;100847.53;5110330;28;20489;-28
2022/10/11 01:10:37;;;;;;;14.27;5.93;;;;;;;14.60;84.29;100848.50;5110081;28;20039;-29
2022/10/11 01:13:39;;;;;;;9.80;5.32;;;;;;;14.69;83.81;100867.81;5110359;28;20039;-28
2022/10/11 01:16:14;;;;;;;7.85;5.03;;;;;;;14.76;83.33;100865.84;5110370;28;20039;-30
2022/10/11 01:19:02;;;;;;;7.72;4.35;;;;;;;14.49;84.30;100864.53;5110083;28;20913;-30
2022/10/11 01:21:56;;;;;;;7.25;4.45;;;;;;;14.56;84.27;100867.97;5110383;28;20108;-28
2022/10/11 01:24:24;;;;;;;8.93;5.20;;;;;;;14.53;83.87;100865.72;5091458;28;20509;-29
2022/10/11 01:26:58;;;;;;;;;;;;;;;14.49;83.92;100848.44;5110798;28;20180;-30
2022/10/11 01:29:45;;;;;;;12.13;4.93;;;;;;;14.24;84.26;100827.84;5110422;28;19919;-27
2022/10/11 01:32:28;;;;;;;11.50;4.95;;;;;;;14.50;83.66;100847.38;5108758;28;20038;-26
2022/10/11 01:35:16;;;;;;;7.63;4.80;;;;;;;14.29;84.71;100849.47;5091428;28;20392;-28
2022/10/11 01:37:48;;;;;;;8.48;4.82;;;;;;;14.25;84.85;100845.59;5070230;28;20088;-29
2022/10/11 01:40:31;;;;;;;10.75;4.82;;;;;;;14.04;84.76;100828.91;5089836;28;20715;-28
2022/10/11 01:42:58;;;;;;;9.55;5.47;;;;;;;14.36;84.27;100844.84;5089295;28;20032;-28
2022/10/11 01:45:24;;;;;;;9.73;5.27;;;;;;;14.02;85.62;100838.22;5089514;28;20028;-28
2022/10/11 01:48:11;;;;;;;9.38;4.85;;;;;;;14.15;85.21;100842.63;5088790;28;20434;-29
2022/10/11 01:50:48;;;;;;;7.25;4.85;;;;;;;14.15;85.02;100839.94;5089391;28;20486;-28
2022/10/11 01:53:38;;;;;;;9.05;4.63;;;;;;;14.24;84.98;100838.56;5070043;28;20119;-29
2022/10/11 01:56:32;;;;;;;8.20;4.93;;;;;;;14.23;84.86;100843.13;5088940;28;20031;-27
2022/10/11 01:59:05;;;;;;;8.73;4.82;;;;;;;14.27;85.19;100840.81;5089373;28;20040;-28
2022/10/11 02:01:46;;;;;;;7.38;4.57;;;;;;;14.19;85.01;100841.13;5088676;28;20032;-31
2022/10/11 02:04:23;;;;;;;8.13;5.07;;;;;;;14.21;85.15;100844.41;5089023;28;20104;-28
2022/10/11 02:06:57;;;;;;;12.68;5.32;;;;;;;14.06;85.91;100848.28;5088806;28;20044;-29
2022/10/11 02:09:32;;;;;;;10.95;4.85;;;;;;;14.00;85.58;100843.81;5089058;28;20028;-30
2022/10/11 02:12:04;;;;;;;13.02;4.97;;;;;;;14.20;84.80;100837.38;5088920;28;20058;-31
2022/10/11 02:14:34;;;;;;;13.40;6.65;;;;;;;13.92;84.45;100841.41;5088625;28;20032;-27
2022/10/11 02:17:07;;;;;;;12.95;6.90;;;;;;;13.64;85.06;100818.56;5089042;28;20039;-28
2022/10/11 02:19:41;;;;;;;11.88;6.93;;;;;;;13.76;84.62;100807.94;5088534;28;20124;-31
2022/10/11 02:22:13;;;;;;;11.15;6.80;;;;;;;13.74;85.25;100836.03;5088647;28;20035;-30
2022/10/11 02:24:45;;;;;;;14.73;7.03;;;;;;;13.75;84.88;100840.34;5088470;28;20046;-29
2022/10/11 02:27:12;;;;;;;10.60;6.97;;;;;;;14.00;83.08;100837.63;5088348;28;20472;-28
2022/10/11 02:29:43;;;;;;;12.52;7.22;;;;;;;13.40;85.45;100839.00;5088055;28;20032;-27
2022/10/11 02:32:09;;;;;;;11.20;6.80;;;;;;;13.57;84.63;100841.13;5088379;28;20040;-28
2022/10/11 02:34:43;;;;;;;11.13;7.15;;;;;;;13.48;84.45;100818.31;5088649;28;20117;-28
2022/10/11 02:37:20;;;;;;;10.65;7.03;;;;;;;13.52;84.29;100836.41;5088411;28;20056;-28
2022/10/11 02:40:09;;;;;;;10.63;7.63;;;;;;;13.65;82.97;100840.84;5087929;28;20115;-29
2022/10/11 02:42:43;;;;;;;14.75;7.50;;;;;;;13.49;82.95;100818.13;5088316;28;20063;-28
2022/10/11 02:45:22;;;;;;;9.20;7.03;;;;;;;13.56;82.32;100836.81;5088197;28;20106;-29
2022/10/11 02:47:48;;;;;;;13.35;7.65;;;;;;;13.49;82.02;100823.47;5087863;28;20416;-29
2022/10/11 02:50:14;;;;;;;10.65;7.60;;;;;;;13.49;82.15;100839.53;5087749;28;20034;-28
2022/10/11 02:52:40;;;;;;;11.85;7.80;;;;;;;13.60;81.90;100838.81;5087817;28;20028;-29
2022/10/11 02:55:06;;;;;;;12.05;7.95;;;;;;;13.48;82.16;100839.75;5088225;28;20157;-31
2022/10/11 02:57:32;;;;;;;13.15;8.38;;;;;;;13.37;82.95;100849.34;5087825;28;20058;-31
2022/10/11 02:59:57;;;;;;;14.82;8.50;;;;;;;13.14;83.20;100802.50;5087882;28;20511;-27
2022/10/11 03:02:23;;;;;;;11.43;7.95;;;;;;;13.41;82.50;100837.94;5087609;28;20695;-29
2022/10/11 03:04:48;;;;;;;13.50;8.23;;;;;;;13.14;82.95;100818.56;5087205;28;20028;-27
2022/10/11 03:07:13;;;;;;;12.23;7.47;;;;;;;13.13;83.91;100834.84;5069000;28;20028;-28
2022/10/11 03:09:39;;;;;;;11.30;7.82;;;;;;;12.82;85.50;100831.94;5087478;28;20080;-29
2022/10/11 03:12:06;;;;;;;12.10;8.07;;;;;;;13.00;84.20;100830.41;5087967;28;20058;-29
2022/10/11 03:14:31;;;;;;;11.15;7.95;;;;;;;13.02;83.39;100810.41;5087970;28;20127;-28
2022/10/11 03:16:57;;;;;;;11.15;7.30;;;;;;;12.61;85.63;100824.25;5087585;28;20205;-29
2022/10/11 03:19:22;;;;;;;12.52;7.90;;;;;;;12.45;86.80;100790.78;5069230;28;20027;-29
2022/10/11 03:21:48;;;;;;;12.00;7.93;;;;;;;12.60;86.92;100830.63;5068577;28;20472;-29
2022/10/11 03:24:13;;;;;;;12.20;8.10;;;;;;;12.90;86.07;100824.72;5087598;28;20057;-27
2022/10/11 03:26:39;;;;;;;16.05;7.68;;;;;;;12.77;85.58;100802.34;5087698;28;20035;-28
2022/10/11 03:29:04;;;;;;;13.85;7.88;;;;;;;13.04;84.23;100818.22;5087219;28;20469;-29
2022/10/11 03:31:29;;;;;;;12.73;7.85;;;;;;;13.12;84.95;100828.69;5087434;28;20612;-28
2022/10/11 03:33:55;;;;;;;11.15;7.30;;;;;;;13.17;83.91;100820.78;5086990;28;20028;-28
2022/10/11 03:36:20;;;;;;;12.57;8.45;;;;;;;13.30;83.75;100825.28;5087319;28;20036;-29
2022/10/11 03:38:46;;;;;;;12.13;7.90;;;;;;;13.18;84.02;100830.47;5087493;28;20052;-30
2022/10/11 03:41:11;;;;;;;10.68;7.95;;;;;;;12.85;84.99;100807.44;5087545;28;20039;-29
2022/10/11 03:43:37;;;;;;;15.02;8.70;;;;;;;12.86;85.72;100809.06;5087005;28;20471;-28
2022/10/11 03:46:02;;;;;;;13.90;8.18;;;;;;;12.64;86.66;100802.41;5068958;28;20094;-27
2022/10/11 03:48:28;;;;;;;13.15;8.07;;;;;;;12.56;87.64;100819.50;5087298;28;20050;-29
2022/10/11 03:50:53;;;;;;;13.13;7.47;;;;;;;12.73;87.29;100827.88;5086861;28;20031;-28
2022/10/11 03:53:18;;;;;;;13.32;8.77;;;;;;;12.77;87.19;100825.59;5087372;28;20568;-28
2022/10/11 03:55:44;;;;;;;13.85;7.82;;;;;;;12.91;87.29;100823.66;5086776;28;20020;-27
2022/10/11 03:58:09;;;;;;;18.45;8.23;;;;;;;12.93;85.27;100794.81;5087229;28;20028;-30
2022/10/11 04:00:35;;;;;;;14.38;7.65;;;;;;;13.33;83.97;100818.66;5086971;28;20031;-28
2022/10/11 04:03:02;;;;;;;13.50;7.75;;;;;;;13.12;85.76;100814.44;5068595;28;20020;-28
2022/10/11 04:05:29;;;;;;;10.45;7.88;;;;;;;13.17;84.95;100818.13;5086698;28;20032;-30
2022/10/11 04:07:54;;;;;;;16.50;8.05;;;;;;;13.16;83.84;100800.41;5086748;28;20032;-28
2022/10/11 04:10:20;;;;;;;13.52;7.32;;;;;;;12.80;85.60;100796.53;5068916;28;20073;-31
2022/10/11 04:12:45;;;;;;;12.10;8.07;;;;;;;12.75;86.98;100799.06;5085637;28;20032;-29
2022/10/11 04:15:13;;;;;;;15.57;8.73;;;;;;;12.81;87.09;100802.69;5087062;28;20024;-27
2022/10/11 04:17:39;;;;;;;;;;;;;;;12.96;86.21;100813.13;5072307;28;20028;-31
2022/10/11 04:20:06;;;;;;;12.65;8.15;;;;;;;12.69;87.38;100794.56;5090898;28;19912;-28
2022/10/11 04:22:32;;;;;;;15.32;10.05;;;;;;;12.68;86.94;100810.81;5090844;28;20441;-28
2022/10/11 04:24:57;;;;;;;18.05;11.52;;;;;;;12.62;87.03;100815.97;5090814;28;20036;-27
2022/10/11 04:27:25;;;;;;;290.52;24.83;;;;;;;12.62;87.88;100823.19;5090728;28;20031;-28
2022/10/11 04:29:51;;;;;;;22.05;11.57;;;;;;;12.41;88.24;100814.44;5090944;28;20028;-27
2022/10/11 04:32:16;;;;;;;19.23;11.77;;;;;;;12.46;87.86;100798.59;5072228;28;20039;-27
2022/10/11 04:34:42;;;;;;;16.73;10.32;;;;;;;12.65;86.79;100822.78;5090363;28;20032;-26
2022/10/11 04:37:07;;;;;;;18.23;10.90;;;;;;;12.61;86.29;100797.50;5072004;28;20059;-27
2022/10/11 04:39:32;;;;;;;18.88;10.32;;;;;;;12.74;86.63;100824.16;5090221;28;20616;-28
2022/10/11 04:41:58;;;;;;;17.02;11.18;;;;;;;12.74;86.61;100821.47;5072271;28;20028;-29
2022/10/11 04:44:23;;;;;;;24.25;10.65;;;;;;;13.22;83.95;100820.97;5090864;28;20548;-27
2022/10/11 04:46:49;;;;;;;21.50;10.02;;;;;;;13.02;84.32;100802.38;5090865;28;20573;-29
2022/10/11 04:49:14;;;;;;;22.08;10.48;;;;;;;12.87;85.02;100812.53;5090777;28;20495;-28
2022/10/11 04:51:40;;;;;;;19.88;10.65;;;;;;;12.94;84.46;100801.81;5090156;28;20572;-31
2022/10/11 04:54:05;;;;;;;18.95;10.50;;;;;;;13.31;83.30;100821.56;5090434;28;20020;-28
2022/10/11 04:56:30;;;;;;;20.38;10.93;;;;;;;13.27;83.19;100829.16;5071711;28;20035;-29
2022/10/11 04:58:56;;;;;;;27.40;10.25;;;;;;;13.32;82.85;100822.38;5072236;28;20111;-28
2022/10/11 05:01:21;;;;;;;16.25;10.85;;;;;;;13.23;82.62;100813.75;5090229;28;20024;-27
2022/10/11 05:03:47;;;;;;;21.63;11.55;;;;;;;13.30;82.64;100827.13;5089772;28;20193;-26
2022/10/11 05:06:13;;;;;;;20.60;12.45;;;;;;;13.01;83.94;100818.66;5089868;28;20067;-30
2022/10/11 05:08:38;;;;;;;20.10;11.43;;;;;;;12.86;85.52;100801.03;5090324;28;20114;-28
2022/10/11 05:11:07;;;;;;;23.83;11.30;;;;;;;13.10;84.68;100830.75;5090083;28;20071;-30
2022/10/11 05:13:33;;;;;;;;;;;;;;;13.31;83.76;100834.13;5090217;28;20043;-29
2022/10/11 05:15:58;;;;;;;21.10;12.65;;;;;;;13.31;82.60;100818.88;5089917;28;19916;-31
2022/10/11 05:18:25;;;;;;;23.08;10.95;;;;;;;13.24;82.63;100831.47;5089817;28;20028;-28
2022/10/11 05:21:06;;;;;;;23.95;10.80;;;;;;;13.08;82.76;100822.09;5089623;28;20809;-29
2022/10/11 05:23:33;;;;;;;17.67;9.75;;;;;;;13.30;82.54;100837.84;5089442;28;20035;-27
2022/10/11 05:25:59;;;;;;;28.23;9.68;;;;;;;13.45;82.21;100846.38;5089849;28;20024;-29
2022/10/11 05:28:25;;;;;;;15.60;8.85;;;;;;;13.46;82.63;100845.31;5088529;28;20040;-30
2022/10/11 05:30:51;;;;;;;17.52;8.57;;;;;;;13.56;82.65;100840.28;5073604;28;20051;-28
2022/10/11 05:33:17;;;;;;;17.60;8.60;;;;;;;13.53;81.95;100821.19;5089465;28;20491;-29
2022/10/11 05:35:42;;;;;;;15.80;8.38;;;;;;;13.65;82.80;100844.34;5087829;28;20124;-28
2022/10/11 05:38:08;;;;;;;14.93;8.98;;;;;;;13.62;83.00;100850.13;5089297;28;20142;-29
2022/10/11 05:40:33;;;;;;;24.38;9.15;;;;;;;13.62;83.47;100841.28;5101057;28;20036;-28
2022/10/11 05:42:59;;;;;;;14.75;9.30;;;;;;;13.69;83.20;100831.34;5089468;28;20040;-31
2022/10/11 05:45:24;;;;;;;12.55;8.75;;;;;;;13.78;82.82;100829.19;5089243;28;20453;-28
2022/10/11 05:47:50;;;;;;;13.02;8.57;;;;;;;13.84;83.10;100834.47;5089267;28;20032;-27
2022/10/11 05:50:16;;;;;;;27.75;15.68;;;;;;;14.26;84.39;100844.53;5070881;28;20139;-29
2022/10/11 05:52:41;;;;;;;31.15;16.30;;;;;;;14.55;82.74;100839.47;5089136;28;20116;-28
2022/10/11 05:55:07;;;;;;;25.88;15.30;;;;;;;14.87;81.05;100837.41;5089071;28;20693;-29
2022/10/11 05:57:32;;;;;;;27.45;12.38;;;;;;;14.95;81.72;100844.31;5102849;28;20576;-28
2022/10/11 05:59:58;;;;;;;20.88;11.60;;;;;;;15.01;80.35;100838.03;5109130;28;20085;-30
2022/10/11 06:02:23;;;;;;;21.80;11.10;;;;;;;15.04;79.92;100846.47;5109252;28;20114;-27
2022/10/11 06:04:48;;;;;;;33.85;16.00;;;;;;;15.24;79.02;100842.63;5109717;28;20030;-29
2022/10/11 06:07:14;;;;;;;43.60;22.40;;;;;;;15.14;78.40;100829.78;5109389;28;20033;-29
2022/10/11 06:09:39;;;;;;;32.10;17.65;;;;;;;15.48;77.94;100859.63;5108939;28;20514;-30
2022/10/11 06:12:05;;;;;;;26.75;14.18;;;;;;;15.35;75.75;100846.41;5109172;28;20027;-28
2022/10/11 06:14:31;;;;;;;22.25;12.40;;;;;;;15.27;76.71;100853.75;5108803;28;20761;-28
2022/10/11 06:16:56;;;;;;;15.82;10.07;;;;;;;15.40;76.32;100846.53;5109031;28;20574;-27
2022/10/11 06:19:22;;;;;;;18.10;9.52;;;;;;;15.33;75.52;100838.56;5107546;28;20456;-32
2022/10/11 06:21:47;;;;;;;22.08;11.43;;;;;;;15.36;76.47;100856.09;5109042;28;20107;-29
2022/10/11 06:24:13;;;;;;;15.98;9.90;;;;;;;15.33;76.54;100840.44;5108804;28;20020;-30
2022/10/11 06:26:38;;;;;;;19.35;11.68;;;;;;;15.62;77.05;100870.97;5109225;28;20082;-28
2022/10/11 06:29:04;;;;;;;19.45;9.68;;;;;;;15.21;76.63;100843.13;5108992;28;20026;-28
2022/10/11 06:31:30;;;;;;;14.48;9.52;;;;;;;15.53;77.09;100850.84;5108703;28;20089;-34
2022/10/11 06:33:57;;;;;;;17.13;10.80;;;;;;;15.03;78.27;100844.81;5108839;28;20028;-28
2022/10/11 06:36:23;;;;;;;16.42;10.75;;;;;;;15.14;78.70;100832.47;5090258;28;20067;-31
2022/10/11 06:38:53;;;;;;;16.77;10.55;;;;;;;15.00;78.65;100817.59;5108284;28;20023;-30
2022/10/11 06:41:26;;;;;;;17.58;10.32;;;;;;;15.49;77.73;100850.53;5108486;28;20031;-28
2022/10/11 06:44:13;;;;;;;15.98;9.55;;;;;;;15.36;76.82;100839.97;5091832;28;20087;-28
2022/10/11 06:46:39;;;;;;;15.18;9.80;;;;;;;15.60;76.11;100838.13;5108660;28;20022;-27
2022/10/11 06:49:06;;;;;;;14.57;9.13;;;;;;;15.93;74.76;100856.41;5104730;28;20027;-30
2022/10/11 06:51:34;;;;;;;14.27;8.13;;;;;;;15.54;76.43;100866.75;5087222;28;20055;-31
2022/10/11 06:57:21;;;;;;;15.27;9.00;;;;;;;15.75;75.41;100840.38;5098861;28;20074;-28
2022/10/11 06:59:47;;;;;;;41.83;11.27;;;;;;;15.90;75.00;100839.94;5052276;28;20119;-28
2022/10/11 07:02:12;;;;;;;31.05;10.23;;;;;;;15.64;76.44;100840.13;5086738;28;20514;-30
2022/10/11 07:04:38;;;;;;;14.63;8.20;;;;;;;15.76;76.41;100858.16;5087186;28;20028;-28
2022/10/11 07:07:03;;;;;;;14.80;8.68;;;;;;;15.66;75.95;100840.69;5069224;28;20080;-27
2022/10/11 07:09:29;;;;;;;17.80;8.80;;;;;;;15.90;75.17;100829.97;5087314;28;20024;-29
2022/10/11 07:11:55;;;;;;;13.93;8.27;;;;;;;16.12;74.25;100854.41;5085823;28;20024;-30
2022/10/11 07:14:20;;;;;;;14.55;8.93;;;;;;;16.12;74.18;100842.81;5110006;27;20038;-29
2022/10/11 07:16:46;;;;;;;26.38;10.73;;;;;;;16.10;74.04;100840.38;5107260;28;20027;-33
2022/10/11 07:19:11;;;;;;;18.27;9.50;;;;;;;16.33;73.91;100850.25;5103400;28;20027;-28
2022/10/11 07:21:36;;;;;;;15.93;8.60;;;;;;;16.55;72.99;100857.69;5097549;28;20102;-30
2022/10/11 07:24:02;;;;;;;16.45;9.30;;;;;;;16.35;73.41;100833.88;5075155;28;20024;-30
2022/10/11 07:26:28;;;;;;;11.65;6.80;;;;;;;16.47;72.83;100835.47;5107046;28;20035;-31
2022/10/11 07:28:54;;;;;;;11.80;7.10;;;;;;;16.59;71.60;100819.28;5106959;28;20027;-27
2022/10/11 07:31:22;;;;;;;11.45;7.25;;;;;;;16.85;71.80;100860.19;5088762;28;20024;-28
2022/10/11 07:33:47;;;;;;;10.45;7.18;;;;;;;16.70;72.41;100839.13;5107010;28;20040;-28
2022/10/11 07:36:14;;;;;;;13.85;7.30;;;;;;;17.10;70.83;100854.47;5107121;28;20493;-31
2022/10/11 07:38:44;;;;;;;11.52;6.85;;;;;;;17.25;70.93;100852.00;5106877;28;20128;-31
2022/10/11 07:41:10;;;;;;;12.82;6.80;;;;;;;17.31;70.37;100850.22;5107231;28;20090;-32
2022/10/11 07:43:36;;;;;;;13.50;6.38;;;;;;;17.38;70.25;100850.84;5088560;28;20123;-30
2022/10/11 07:46:03;;;;;;;12.48;6.53;;;;;;;17.26;71.01;100842.03;5107198;28;20065;-31
2022/10/11 07:48:33;;;;;;;10.90;6.70;;;;;;;17.37;70.06;100834.94;5106704;28;20031;-29
2022/10/11 07:51:02;;;;;;;11.65;6.13;;;;;;;17.44;69.73;100849.06;5106870;28;20043;-28
2022/10/11 07:53:28;;;;;;;13.77;6.50;;;;;;;17.23;70.37;100851.44;5106924;28;20023;-30
2022/10/11 07:55:53;;;;;;;12.27;6.50;;;;;;;17.50;70.24;100860.75;5107129;28;20031;-28
2022/10/11 07:58:19;;;;;;;11.98;6.97;;;;;;;17.50;68.69;100864.28;5106910;28;20080;-31
2022/10/11 08:00:44;;;;;;;11.63;6.60;;;;;;;17.23;71.51;100848.75;5106510;28;20027;-30
2022/10/11 08:03:10;;;;;;;12.85;7.70;;;;;;;17.62;69.06;100851.50;5106792;28;20035;-31
2022/10/11 08:05:37;;;;;;;12.38;6.10;;;;;;;17.82;69.13;100855.59;5107027;28;20046;-28
2022/10/11 08:08:03;;;;;;;11.93;6.38;;;;;;;17.68;70.17;100850.53;5088587;28;20072;-27
2022/10/11 08:10:29;;;;;;;12.60;6.35;;;;;;;17.94;69.79;100837.44;5088380;28;20047;-29
2022/10/11 08:12:54;;;;;;;17.70;6.95;;;;;;;18.35;68.34;100861.44;5106515;28;20506;-29
2022/10/11 08:15:20;;;;;;;12.65;6.90;;;;;;;18.20;70.53;100862.06;5106500;28;20468;-28
2022/10/11 08:17:45;;;;;;;15.23;6.97;;;;;;;17.98;68.15;100833.19;5106586;28;20016;-27
2022/10/11 08:20:11;;;;;;;10.02;6.53;;;;;;;18.67;67.21;100845.34;5098836;28;20036;-31
2022/10/11 08:22:38;;;;;;;8.30;5.35;;;;;;;19.01;65.72;100839.78;5106894;28;20555;-28
2022/10/11 08:25:04;;;;;;;10.77;6.75;;;;;;;18.95;73.53;100820.00;5106535;28;20027;-28
2022/10/11 08:27:29;;;;;;;8.98;5.93;;;;;;;19.11;64.50;100828.25;5106816;28;20135;-28
2022/10/11 08:29:54;;;;;;;11.43;6.97;;;;;;;19.22;74.22;100822.66;5088517;28;20024;-28
2022/10/11 08:32:20;;;;;;;21.90;13.82;;;;;;;18.98;64.47;100813.25;5100021;28;20041;-29
2022/10/11 08:34:45;;;;;;;11.02;6.25;;;;;;;18.83;66.75;100839.06;5086775;28;20024;-28
2022/10/11 08:37:11;;;;;;;11.98;6.68;;;;;;;19.00;70.16;100827.31;5096711;28;20130;-28
2022/10/11 08:39:36;;;;;;;10.55;6.18;;;;;;;19.21;67.94;100828.34;5105740;28;20054;-28
2022/10/11 08:42:06;;;;;;;9.15;4.95;;;;;;;19.26;65.12;100806.72;5106249;28;20434;-30
2022/10/11 08:44:37;;;;;;;54.17;35.03;;;;;;;19.35;67.60;100828.69;5106363;28;20028;-30
2022/10/11 08:47:14;;;;;;;22.88;14.55;;;;;;;19.31;64.58;100811.34;5106473;28;20483;-28
2022/10/11 08:49:40;;;;;;;34.60;19.90;;;;;;;19.35;63.12;100801.66;5106805;28;20061;-29
2022/10/11 08:52:14;;;;;;;37.35;19.80;;;;;;;19.31;70.88;100812.19;5106505;28;20071;-30
2022/10/11 08:54:52;;;;;;;19.55;11.05;;;;;;;19.26;64.00;100822.97;5106246;28;20792;-28
2022/10/11 08:57:19;;;;;;;;;;;;;;;19.15;67.91;100813.94;5106558;28;20028;-28
2022/10/11 08:59:45;;;;;;;;;;;;;;;19.51;64.88;100822.31;5088553;28;19922;-33
2022/10/11 09:02:35;;;;;;;15.97;10.70;;;;;;;19.60;64.22;100799.13;5107250;28;19916;-28
2022/10/11 09:05:01;;;;;;;7.75;4.43;;;;;;;19.54;61.92;100815.59;5110127;28;20297;-28
2022/10/11 09:07:42;;;;;;;16.63;10.40;;;;;;;19.64;64.17;100800.25;5109872;28;20031;-28
2022/10/11 09:10:33;;;;;;;10.63;6.63;;;;;;;19.46;63.60;100803.38;5109876;28;20384;-29
2022/10/11 09:13:29;;;;;;;12.70;6.13;;;;;;;19.49;60.61;100789.31;5101065;28;20055;-29
2022/10/11 09:16:00;;;;;;;60.58;25.05;;;;;;;19.93;61.15;100801.78;5109541;28;20775;-28
2022/10/11 09:18:52;;;;;;;14.48;5.05;;;;;;;20.01;59.51;100802.09;5110159;28;20032;-34
2022/10/11 09:21:37;;;;;;;9.02;4.40;;;;;;;19.44;61.35;100800.91;5077649;28;20039;-28
2022/10/11 09:24:44;;;;;;;8.32;4.80;;;;;;;20.06;59.50;100799.41;5109421;28;20028;-29
2022/10/11 09:27:25;;;;;;;9.70;5.63;;;;;;;20.26;59.84;100790.53;5109596;28;20020;-28
2022/10/11 09:30:15;;;;;;;8.18;4.43;;;;;;;20.47;60.45;100807.69;5109693;28;20066;-28
2022/10/11 09:32:45;;;;;;;9.30;5.05;;;;;;;21.10;56.69;100808.63;5109152;28;20105;-32
2022/10/11 09:35:12;;;;;;;12.13;6.50;;;;;;;20.99;56.22;100788.81;5109895;28;20043;-29
2022/10/11 09:37:41;;;;;;;11.35;5.10;;;;;;;20.81;55.67;100801.81;5107610;28;20645;-29
2022/10/11 09:40:17;;;;;;;7.22;4.45;;;;;;;21.00;55.05;100798.56;5109281;28;20020;-30
2022/10/11 09:42:43;;;;;;;9.25;4.60;;;;;;;21.01;55.35;100783.94;5108875;28;20111;-28
2022/10/11 09:45:20;;;;;;;6.95;3.90;;;;;;;20.43;57.11;100803.88;5109061;28;20127;-28
2022/10/11 09:47:48;;;;;;;10.23;4.75;;;;;;;20.27;57.89;100781.34;5109464;28;20092;-28
2022/10/11 09:50:15;;;;;;;;;;;;;;;20.85;57.92;100792.06;5109573;28;20464;-28
2022/10/11 09:52:58;;;;;;;9.60;5.82;;;;;;;20.73;57.03;100777.94;5108962;28;19998;-28
2022/10/11 09:55:49;;;;;;;9.77;5.60;;;;;;;20.26;58.75;100785.13;5109197;28;20039;-31
2022/10/11 09:58:33;;;;;;;9.05;4.55;;;;;;;20.05;58.36;100764.47;5109129;28;20023;-28
2022/10/11 10:01:10;;;;;;;8.52;4.65;;;;;;;20.18;57.89;100774.81;5109034;28;20082;-28
2022/10/11 10:03:40;;;;;;;;;;;;;;;20.61;57.19;100777.38;5109477;28;20055;-31
2022/10/11 10:06:08;;;;;;;7.55;5.00;;;;;;;20.69;56.59;100776.84;5108868;28;20331;-28
2022/10/11 10:08:35;;;;;;;9.75;5.10;;;;;;;21.41;54.39;100766.00;5109133;28;20035;-31
2022/10/11 10:11:03;;;;;;;10.02;4.60;;;;;;;21.80;52.44;100774.34;5108664;28;20028;-28
2022/10/11 10:13:50;;;;;;;8.05;4.57;;;;;;;21.31;52.87;100766.84;5108542;28;20789;-27
2022/10/11 10:16:36;;;;;;;8.57;4.50;;;;;;;21.50;53.12;100758.97;5108200;28;20023;-29
2022/10/11 10:19:20;;;;;;;8.18;4.95;;;;;;;21.39;53.03;100762.75;5108566;28;20142;-28
2022/10/11 10:21:48;;;;;;;6.50;4.07;;;;;;;20.95;53.08;100752.50;5108572;28;20024;-28
2022/10/11 10:24:18;;;;;;;11.38;4.65;;;;;;;20.51;55.08;100759.19;5108400;28;20035;-30
2022/10/11 10:27:04;;;;;;;10.02;4.82;;;;;;;20.55;55.37;100754.03;5108125;28;20055;-28
2022/10/11 10:29:29;;;;;;;7.55;4.47;;;;;;;20.86;54.29;100749.47;5108583;28;20074;-29
2022/10/11 10:31:56;;;;;;;8.25;4.60;;;;;;;20.83;52.87;100729.16;5108686;28;20059;-33
2022/10/11 10:34:33;;;;;;;7.32;4.65;;;;;;;20.64;55.14;100739.72;5089945;28;20032;-28
2022/10/11 10:37:27;;;;;;;6.40;3.97;;;;;;;20.77;54.14;100719.41;5107961;28;20047;-31
2022/10/11 10:40:07;;;;;;;7.40;4.50;;;;;;;21.06;52.97;100725.09;5108267;28;20746;-29
2022/10/11 10:42:32;;;;;;;9.70;4.70;;;;;;;20.96;53.79;100729.69;5108333;28;20034;-31
2022/10/11 10:44:58;;;;;;;9.43;5.03;;;;;;;21.02;53.63;100721.31;5108088;28;20028;-28
2022/10/11 10:47:30;;;;;;;16.55;8.13;;;;;;;21.37;52.97;100737.78;5108081;28;20032;-28
2022/10/11 10:50:07;;;;;;;9.02;5.18;;;;;;;21.42;52.51;100707.94;5095938;28;20431;-28
2022/10/11 10:53:04;;;;;;;7.90;4.75;;;;;;;21.30;51.40;100708.22;5087821;28;20055;-28
2022/10/11 10:55:50;;;;;;;8.40;4.40;;;;;;;21.17;51.93;100722.38;5087663;28;20028;-28
2022/10/11 10:58:34;;;;;;;10.55;4.70;;;;;;;21.15;51.47;100721.84;5087642;28;20028;-28
2022/10/11 11:01:25;;;;;;;9.93;4.70;;;;;;;21.37;51.39;100711.47;5087500;28;20523;-28
2022/10/11 11:04:00;;;;;;;7.88;4.65;;;;;;;21.24;51.26;100715.56;5075663;28;20048;-31
2022/10/11 11:06:32;;;;;;;7.63;4.43;;;;;;;21.53;51.51;100712.25;5087114;28;20035;-29
2022/10/11 11:09:06;;;;;;;7.93;4.88;;;;;;;21.09;52.47;100702.03;5087243;28;20032;-33
2022/10/11 11:11:59;;;;;;;12.65;5.05;;;;;;;20.92;52.05;100686.03;5087254;28;20020;-27
2022/10/11 11:14:52;;;;;;;8.23;4.45;;;;;;;20.81;52.50;100706.94;5068827;28;20586;-28
2022/10/11 11:17:23;;;;;;;9.30;4.65;;;;;;;20.99;52.65;100704.75;5087318;28;20028;-29
2022/10/11 11:20:07;;;;;;;6.53;4.53;;;;;;;21.35;51.96;100704.69;5087192;28;20039;-29
2022/10/11 11:23:15;;;;;;;6.63;4.60;;;;;;;21.16;51.64;100699.84;5087092;28;20028;-31
2022/10/11 11:26:08;;;;;;;10.82;5.22;;;;;;;21.15;51.99;100703.66;5086467;28;20115;-30
2022/10/11 11:28:48;;;;;;;7.78;4.75;;;;;;;21.01;52.29;100697.16;5068616;28;20127;-31
2022/10/11 11:31:35;;;;;;;7.28;4.20;;;;;;;20.95;51.92;100687.41;5086940;28;20077;-33
2022/10/11 11:34:12;;;;;;;8.95;4.80;;;;;;;21.17;51.90;100690.63;5087087;28;20089;-29
2022/10/11 11:36:45;;;;;;;8.77;4.43;;;;;;;21.10;52.15;100673.81;5068281;28;20043;-29
2022/10/11 11:39:19;;;;;;;7.43;4.78;;;;;;;21.30;50.77;100689.25;5087150;28;20035;-29